Virginiborg — PBDL — position and weather

sailwx.info

Track history (hours):
 
Tides and Currents Weather Stations Pressure Air Temp Water Temp Dewpoint Dewpoint Depression Visibility Wind Speed Wind Dir Waves Ship Positions

Virginiborg

Last reported at 2017-Oct-17 03:02 UTC. Time now 2017-Oct-18 07:41 UTC.
Position N 33°10' W 008°41'.

Length 132 m; draft 7.8 m.

Type: Cargo ship. MMSI: 244632000.

Date/timePositionNaut miles runAvg speedWind from/ knotsBaromVisibWave heightAir tempDewpointWater temp
2017-Oct-17 03:02N 33°10' W 008°41'0 0.1
2017-Oct-17 02:59N 33°10' W 008°41'134 2.6
2017-Oct-15 00:16N 35°21' W 009°18'2912.8
2017-Oct-14 21:59N 35°49' W 009°26'1112.8
2017-Oct-14 21:09N 35°59' W 009°29'312.7
2017-Oct-14 20:54N 36°02' W 009°29'512.9
2017-Oct-14 20:30N 36°07' W 009°31'612.7
2017-Oct-14 20:00N 36°14' W 009°32'712.6
2017-Oct-14 19:25N 36°21' W 009°35'512.5
2017-Oct-14 19:00N 36°26' W 009°37'712.6
2017-Oct-14 18:29N 36°32' W 009°39'712.9
2017-Oct-14 17:56N 36°39' W 009°41'612.7
2017-Oct-14 17:29N 36°44' W 009°43'612.6
2017-Oct-14 17:00N 36°50' W 009°44'612.4
2017-Oct-14 16:30N 36°56' W 009°46'612.4
2017-Oct-14 16:00N 37°02' W 009°48'612.4
2017-Oct-14 15:30N 37°08' W 009°50'612.4
2017-Oct-14 15:00N 37°14' W 009°51'612.4
2017-Oct-14 14:30N 37°21' W 009°52'611.9
2017-Oct-14 14:00N 37°26' W 009°53'612.2
2017-Oct-14 13:30N 37°32' W 009°54'612.3
2017-Oct-14 13:00N 37°39' W 009°56'612.2
2017-Oct-14 12:30N 37°45' W 009°57'612.7
2017-Oct-14 12:00N 37°51' W 009°58'612.9
2017-Oct-14 11:30N 37°57' W 009°59'713.3
2017-Oct-14 11:00N 38°04' W 009°60'713.0
2017-Oct-14 10:30N 38°10' W 010°01'812.6
2017-Oct-14 09:53N 38°18' W 010°02'512.7
2017-Oct-14 09:30N 38°23' W 010°03'612.7
2017-Oct-14 09:00N 38°29' W 010°04'612.7
2017-Oct-14 08:30N 38°36' W 010°05'612.9
2017-Oct-14 08:00N 38°42' W 010°06'613.0
2017-Oct-14 07:30N 38°48' W 010°06'613.0
2017-Oct-14 07:00N 38°55' W 010°06'613.0
2017-Oct-14 06:30N 39°01' W 010°06'612.8
2017-Oct-14 06:00N 39°08' W 010°06'713.1
2017-Oct-14 05:30N 39°14' W 010°06'713.0
2017-Oct-14 05:00N 39°21' W 010°06'613.0
2017-Oct-14 04:30N 39°27' W 010°06'612.8
2017-Oct-14 04:00N 39°34' W 010°06'612.7
2017-Oct-14 03:30N 39°40' W 010°06'712.7
2017-Oct-14 02:56N 39°47' W 010°06'512.8
2017-Oct-14 02:30N 39°53' W 010°06'712.5
2017-Oct-14 01:57N 39°59' W 010°06'612.4
2017-Oct-14 01:30N 40°05' W 010°06'612.6
2017-Oct-14 01:00N 40°11' W 010°06'612.4
2017-Oct-14 00:30N 40°18' W 010°06'612.8
2017-Oct-14 00:00N 40°24' W 010°06'612.6
2017-Oct-13 23:30N 40°30' W 010°06'612.5
2017-Oct-13 23:00N 40°37' W 010°06'612.7
2017-Oct-13 22:30N 40°43' W 010°06'713.0
2017-Oct-13 22:00N 40°49' W 010°06'713.0
2017-Oct-13 21:30N 40°56' W 010°06'612.9
2017-Oct-13 21:00N 41°02' W 010°06'612.6
2017-Oct-13 20:30N 41°09' W 010°06'612.6
2017-Oct-13 20:00N 41°15' W 010°06'713.0
2017-Oct-13 19:30N 41°21' W 010°06'613.0
2017-Oct-13 19:00N 41°28' W 010°06'612.8
2017-Oct-13 18:30N 41°34' W 010°06'612.3
2017-Oct-13 18:00N 41°41' W 010°06'46210.7
2017-Oct-11 22:48N 48°46' W 005°52'610.9
2017-Oct-11 22:16N 48°51' W 005°48'310.1
2017-Oct-11 21:59N 48°54' W 005°45'229 9.8
2017-Oct-10 22:39N 50°28' W 000°22'1 8.4
2017-Oct-10 22:30N 50°28' W 000°21'4 8.7
2017-Oct-10 22:00N 50°29' W 000°14'510.6
2017-Oct-10 21:30N 50°31' W 000°06'611.0
2017-Oct-10 21:00N 50°32' E 000°02'510.8
2017-Oct-10 20:30N 50°34' E 000°10'510.9
2017-Oct-10 20:00N 50°35' E 000°19'611.1
2017-Oct-10 19:30N 50°37' E 000°27'510.9
2017-Oct-10 19:00N 50°39' E 000°35'510.3
2017-Oct-10 18:31N 50°42' E 000°42'510.1
2017-Oct-10 18:00N 50°45' E 000°48'510.5
2017-Oct-10 17:30N 50°47' E 000°55'510.0
2017-Oct-10 17:01N 50°50' E 001°02'5 9.5
2017-Oct-10 16:30N 50°53' E 001°08'6 8.9
2017-Oct-10 15:50N 50°57' E 001°15'3 8.1
2017-Oct-10 15:28N 50°59' E 001°18'4 7.6
2017-Oct-10 15:00N 51°01' E 001°23'8 7.6
2017-Oct-10 14:00N 51°06' E 001°32'4 8.4
2017-Oct-10 13:31N 51°09' E 001°37'5 9.4
2017-Oct-10 13:00N 51°12' E 001°43'510.5
2017-Oct-10 12:30N 51°16' E 001°48'612.0
2017-Oct-10 12:00N 51°21' E 001°52'612.8
2017-Oct-10 11:30N 51°27' E 001°57'612.8
2017-Oct-10 11:00N 51°32' E 002°04'612.6
2017-Oct-10 10:30N 51°37' E 002°11'612.4
2017-Oct-10 10:00N 51°41' E 002°17'16910.3
2017-Oct-09 17:33N 54°01' E 004°55'111.1
2017-Oct-09 17:29N 54°01' E 004°55'611.2
2017-Oct-09 16:58N 54°07' E 004°59'611.3
2017-Oct-09 16:29N 54°11' E 005°04'611.4
2017-Oct-09 15:59N 54°16' E 005°10'611.5
2017-Oct-09 15:30N 54°21' E 005°15'611.3
2017-Oct-09 15:00N 54°25' E 005°21'511.0
2017-Oct-09 14:30N 54°30' E 005°25'611.2
2017-Oct-09 13:59N 54°35' E 005°30'511.2
2017-Oct-09 13:30N 54°40' E 005°35'611.1
2017-Oct-09 12:59N 54°45' E 005°40'511.1
2017-Oct-09 12:30N 54°49' E 005°45'511.0
2017-Oct-09 12:00N 54°54' E 005°49'611.0
2017-Oct-09 11:29N 54°59' E 005°55'511.0
2017-Oct-09 11:00N 55°03' E 005°59'611.0
2017-Oct-09 10:29N 55°08' E 006°04'511.1
2017-Oct-09 10:00N 55°13' E 006°09'611.2
2017-Oct-09 09:29N 55°18' E 006°14'611.1
2017-Oct-09 08:59N 55°23' E 006°19'611.2
2017-Oct-09 08:30N 55°27' E 006°24'611.3
2017-Oct-09 07:58N 55°33' E 006°29'611.4
2017-Oct-09 07:29N 55°37' E 006°34'611.4
2017-Oct-09 07:00N 55°42' E 006°38'611.4
2017-Oct-09 06:30N 55°47' E 006°43'611.6
2017-Oct-09 05:58N 55°53' E 006°49'511.2
2017-Oct-09 05:29N 55°57' E 006°54'511.2
2017-Oct-09 05:00N 56°02' E 006°58'611.2
2017-Oct-09 04:30N 56°07' E 007°03'10810.6
2017-Oct-08 18:21N 57°31' E 009°06'5510.6
2017-Oct-08 13:09N 57°49' E 010°44'210.1
2017-Oct-08 12:59N 57°49' E 010°47'510.3
2017-Oct-08 12:30N 57°46' E 010°55'510.2
2017-Oct-08 12:00N 57°43' E 011°03'510.4
2017-Oct-08 11:30N 57°41' E 011°11'510.1
2017-Oct-08 11:00N 57°38' E 011°19'5 9.8
2017-Oct-08 10:30N 57°36' E 011°27'510.3
2017-Oct-08 10:00N 57°35' E 011°37'3 5.1
2017-Oct-08 09:30N 57°36' E 011°41'0 0.0
2017-Oct-08 08:58N 57°36' E 011°41'0 0.0
2017-Oct-08 08:28N 57°36' E 011°41'0 0.0
2017-Oct-08 07:58N 57°36' E 011°41'0 0.0
2017-Oct-08 07:31N 57°36' E 011°41'0 0.0
2017-Oct-08 07:00N 57°36' E 011°41'0 0.1
2017-Oct-08 06:30N 57°36' E 011°41'0 0.2
2017-Oct-08 06:00N 57°36' E 011°41'3 5.6
2017-Oct-08 05:30N 57°33' E 011°38'4 7.1
2017-Oct-08 05:00N 57°30' E 011°35'4 7.6
2017-Oct-08 04:30N 57°26' E 011°34'4 7.7
2017-Oct-08 04:00N 57°23' E 011°35'4 7.8
2017-Oct-08 03:30N 57°19' E 011°36'4 7.7
2017-Oct-08 03:00N 57°15' E 011°37'4 7.6
2017-Oct-08 02:30N 57°11' E 011°38'4 7.6
2017-Oct-08 02:00N 57°07' E 011°40'4 7.8
2017-Oct-08 01:30N 57°04' E 011°42'4 8.1
2017-Oct-08 01:00N 56°60' E 011°45'4 8.5
2017-Oct-08 00:30N 56°56' E 011°47'53 8.7
2017-Oct-07 18:25N 56°08' E 012°30'410.1
2017-Oct-07 18:01N 56°05' E 012°36'5 9.7
2017-Oct-07 17:31N 56°01' E 012°40'510.0
2017-Oct-07 17:01N 55°57' E 012°43'510.2
2017-Oct-07 16:31N 55°52' E 012°44'510.6
2017-Oct-07 16:01N 55°46' E 012°42'511.0
2017-Oct-07 15:31N 55°41' E 012°41'4 7.7
2017-Oct-07 15:01N 55°37' E 012°42'3 5.7
2017-Oct-07 14:31N 55°34' E 012°42'3 5.8
2017-Oct-07 14:01N 55°31' E 012°43'5 9.7
2017-Oct-07 13:30N 55°27' E 012°42'611.5
2017-Oct-07 13:00N 55°21' E 012°41'510.4
2017-Oct-07 12:30N 55°17' E 012°47'510.9
2017-Oct-07 12:00N 55°16' E 012°56'510.6
2017-Oct-07 11:30N 55°16' E 013°06'510.7
2017-Oct-07 11:01N 55°15' E 013°15'510.4
2017-Oct-07 10:30N 55°15' E 013°24'1410.3
2017-Oct-07 09:06N 55°14' E 013°49'110.3
2017-Oct-07 09:00N 55°14' E 013°51'1510.2
2017-Oct-07 07:34N 55°14' E 014°17'110.5
2017-Oct-07 07:26N 55°15' E 014°19'510.6
2017-Oct-07 07:00N 55°19' E 014°24'510.6
2017-Oct-07 06:30N 55°23' E 014°30'611.3
2017-Oct-07 06:00N 55°27' E 014°37'510.4
2017-Oct-07 05:31N 55°28' E 014°46'610.6
2017-Oct-07 04:58N 55°30' E 014°55'510.8
2017-Oct-07 04:28N 55°31' E 015°04'510.9
2017-Oct-07 04:01N 55°33' E 015°13'611.0
2017-Oct-07 03:30N 55°35' E 015°22'  
Track history (hours):
 
Tides and Currents Weather Stations Pressure Air Temp Water Temp Dewpoint Dewpoint Depression Visibility Wind Speed Wind Dir Waves Ship Positions

Virginiborg

Last reported at 2017-Oct-17 03:02 UTC. Time now 2017-Oct-18 07:41 UTC.
Position N 33°10' W 008°41'.

Length 132 m; draft 7.8 m.

Type: Cargo ship. MMSI: 244632000.

Date/timePositionNaut miles runAvg speedWind from/ knotsBaromVisibWave heightAir tempDewpointWater temp
2017-Oct-17 03:02N 33°10' W 008°41'0 0.1
2017-Oct-17 02:59N 33°10' W 008°41'134 2.6
2017-Oct-15 00:16N 35°21' W 009°18'2912.8
2017-Oct-14 21:59N 35°49' W 009°26'1112.8
2017-Oct-14 21:09N 35°59' W 009°29'312.7
2017-Oct-14 20:54N 36°02' W 009°29'512.9
2017-Oct-14 20:30N 36°07' W 009°31'612.7
2017-Oct-14 20:00N 36°14' W 009°32'712.6
2017-Oct-14 19:25N 36°21' W 009°35'512.5
2017-Oct-14 19:00N 36°26' W 009°37'712.6
2017-Oct-14 18:29N 36°32' W 009°39'712.9
2017-Oct-14 17:56N 36°39' W 009°41'612.7
2017-Oct-14 17:29N 36°44' W 009°43'612.6
2017-Oct-14 17:00N 36°50' W 009°44'612.4
2017-Oct-14 16:30N 36°56' W 009°46'612.4
2017-Oct-14 16:00N 37°02' W 009°48'612.4
2017-Oct-14 15:30N 37°08' W 009°50'612.4
2017-Oct-14 15:00N 37°14' W 009°51'612.4
2017-Oct-14 14:30N 37°21' W 009°52'611.9
2017-Oct-14 14:00N 37°26' W 009°53'612.2
2017-Oct-14 13:30N 37°32' W 009°54'612.3
2017-Oct-14 13:00N 37°39' W 009°56'612.2
2017-Oct-14 12:30N 37°45' W 009°57'612.7
2017-Oct-14 12:00N 37°51' W 009°58'612.9
2017-Oct-14 11:30N 37°57' W 009°59'713.3
2017-Oct-14 11:00N 38°04' W 009°60'713.0
2017-Oct-14 10:30N 38°10' W 010°01'812.6
2017-Oct-14 09:53N 38°18' W 010°02'512.7
2017-Oct-14 09:30N 38°23' W 010°03'612.7
2017-Oct-14 09:00N 38°29' W 010°04'612.7
2017-Oct-14 08:30N 38°36' W 010°05'612.9
2017-Oct-14 08:00N 38°42' W 010°06'613.0
2017-Oct-14 07:30N 38°48' W 010°06'613.0
2017-Oct-14 07:00N 38°55' W 010°06'613.0
2017-Oct-14 06:30N 39°01' W 010°06'612.8
2017-Oct-14 06:00N 39°08' W 010°06'713.1
2017-Oct-14 05:30N 39°14' W 010°06'713.0
2017-Oct-14 05:00N 39°21' W 010°06'613.0
2017-Oct-14 04:30N 39°27' W 010°06'612.8
2017-Oct-14 04:00N 39°34' W 010°06'612.7
2017-Oct-14 03:30N 39°40' W 010°06'712.7
2017-Oct-14 02:56N 39°47' W 010°06'512.8
2017-Oct-14 02:30N 39°53' W 010°06'712.5
2017-Oct-14 01:57N 39°59' W 010°06'612.4
2017-Oct-14 01:30N 40°05' W 010°06'612.6
2017-Oct-14 01:00N 40°11' W 010°06'612.4
2017-Oct-14 00:30N 40°18' W 010°06'612.8
2017-Oct-14 00:00N 40°24' W 010°06'612.6
2017-Oct-13 23:30N 40°30' W 010°06'612.5
2017-Oct-13 23:00N 40°37' W 010°06'612.7
2017-Oct-13 22:30N 40°43' W 010°06'713.0
2017-Oct-13 22:00N 40°49' W 010°06'713.0
2017-Oct-13 21:30N 40°56' W 010°06'612.9
2017-Oct-13 21:00N 41°02' W 010°06'612.6
2017-Oct-13 20:30N 41°09' W 010°06'612.6
2017-Oct-13 20:00N 41°15' W 010°06'713.0
2017-Oct-13 19:30N 41°21' W 010°06'613.0
2017-Oct-13 19:00N 41°28' W 010°06'612.8
2017-Oct-13 18:30N 41°34' W 010°06'612.3
2017-Oct-13 18:00N 41°41' W 010°06'46210.7
2017-Oct-11 22:48N 48°46' W 005°52'610.9
2017-Oct-11 22:16N 48°51' W 005°48'310.1
2017-Oct-11 21:59N 48°54' W 005°45'229 9.8
2017-Oct-10 22:39N 50°28' W 000°22'1 8.4
2017-Oct-10 22:30N 50°28' W 000°21'4 8.7
2017-Oct-10 22:00N 50°29' W 000°14'510.6
2017-Oct-10 21:30N 50°31' W 000°06'611.0
2017-Oct-10 21:00N 50°32' E 000°02'510.8
2017-Oct-10 20:30N 50°34' E 000°10'510.9
2017-Oct-10 20:00N 50°35' E 000°19'611.1
2017-Oct-10 19:30N 50°37' E 000°27'510.9
2017-Oct-10 19:00N 50°39' E 000°35'510.3
2017-Oct-10 18:31N 50°42' E 000°42'510.1
2017-Oct-10 18:00N 50°45' E 000°48'510.5
2017-Oct-10 17:30N 50°47' E 000°55'510.0
2017-Oct-10 17:01N 50°50' E 001°02'5 9.5
2017-Oct-10 16:30N 50°53' E 001°08'6 8.9
2017-Oct-10 15:50N 50°57' E 001°15'3 8.1
2017-Oct-10 15:28N 50°59' E 001°18'4 7.6
2017-Oct-10 15:00N 51°01' E 001°23'8 7.6
2017-Oct-10 14:00N 51°06' E 001°32'4 8.4
2017-Oct-10 13:31N 51°09' E 001°37'5 9.4
2017-Oct-10 13:00N 51°12' E 001°43'510.5
2017-Oct-10 12:30N 51°16' E 001°48'612.0
2017-Oct-10 12:00N 51°21' E 001°52'612.8
2017-Oct-10 11:30N 51°27' E 001°57'612.8
2017-Oct-10 11:00N 51°32' E 002°04'612.6
2017-Oct-10 10:30N 51°37' E 002°11'612.4
2017-Oct-10 10:00N 51°41' E 002°17'16910.3
2017-Oct-09 17:33N 54°01' E 004°55'111.1
2017-Oct-09 17:29N 54°01' E 004°55'611.2
2017-Oct-09 16:58N 54°07' E 004°59'611.3
2017-Oct-09 16:29N 54°11' E 005°04'611.4
2017-Oct-09 15:59N 54°16' E 005°10'611.5
2017-Oct-09 15:30N 54°21' E 005°15'611.3
2017-Oct-09 15:00N 54°25' E 005°21'511.0
2017-Oct-09 14:30N 54°30' E 005°25'611.2
2017-Oct-09 13:59N 54°35' E 005°30'511.2
2017-Oct-09 13:30N 54°40' E 005°35'611.1
2017-Oct-09 12:59N 54°45' E 005°40'511.1
2017-Oct-09 12:30N 54°49' E 005°45'511.0
2017-Oct-09 12:00N 54°54' E 005°49'611.0
2017-Oct-09 11:29N 54°59' E 005°55'511.0
2017-Oct-09 11:00N 55°03' E 005°59'611.0
2017-Oct-09 10:29N 55°08' E 006°04'511.1
2017-Oct-09 10:00N 55°13' E 006°09'611.2
2017-Oct-09 09:29N 55°18' E 006°14'611.1
2017-Oct-09 08:59N 55°23' E 006°19'611.2
2017-Oct-09 08:30N 55°27' E 006°24'611.3
2017-Oct-09 07:58N 55°33' E 006°29'611.4
2017-Oct-09 07:29N 55°37' E 006°34'611.4
2017-Oct-09 07:00N 55°42' E 006°38'611.4
2017-Oct-09 06:30N 55°47' E 006°43'611.6
2017-Oct-09 05:58N 55°53' E 006°49'511.2
2017-Oct-09 05:29N 55°57' E 006°54'511.2
2017-Oct-09 05:00N 56°02' E 006°58'611.2
2017-Oct-09 04:30N 56°07' E 007°03'10810.6
2017-Oct-08 18:21N 57°31' E 009°06'5510.6
2017-Oct-08 13:09N 57°49' E 010°44'210.1
2017-Oct-08 12:59N 57°49' E 010°47'510.3
2017-Oct-08 12:30N 57°46' E 010°55'510.2
2017-Oct-08 12:00N 57°43' E 011°03'510.4
2017-Oct-08 11:30N 57°41' E 011°11'510.1
2017-Oct-08 11:00N 57°38' E 011°19'5 9.8
2017-Oct-08 10:30N 57°36' E 011°27'510.3
2017-Oct-08 10:00N 57°35' E 011°37'3 5.1
2017-Oct-08 09:30N 57°36' E 011°41'0 0.0
2017-Oct-08 08:58N 57°36' E 011°41'0 0.0
2017-Oct-08 08:28N 57°36' E 011°41'0 0.0
2017-Oct-08 07:58N 57°36' E 011°41'0 0.0
2017-Oct-08 07:31N 57°36' E 011°41'0 0.0
2017-Oct-08 07:00N 57°36' E 011°41'0 0.1
2017-Oct-08 06:30N 57°36' E 011°41'0 0.2
2017-Oct-08 06:00N 57°36' E 011°41'3 5.6
2017-Oct-08 05:30N 57°33' E 011°38'4 7.1
2017-Oct-08 05:00N 57°30' E 011°35'4 7.6
2017-Oct-08 04:30N 57°26' E 011°34'4 7.7
2017-Oct-08 04:00N 57°23' E 011°35'4 7.8
2017-Oct-08 03:30N 57°19' E 011°36'4 7.7
2017-Oct-08 03:00N 57°15' E 011°37'4 7.6
2017-Oct-08 02:30N 57°11' E 011°38'4 7.6
2017-Oct-08 02:00N 57°07' E 011°40'4 7.8
2017-Oct-08 01:30N 57°04' E 011°42'4 8.1
2017-Oct-08 01:00N 56°60' E 011°45'4 8.5
2017-Oct-08 00:30N 56°56' E 011°47'53 8.7
2017-Oct-07 18:25N 56°08' E 012°30'410.1
2017-Oct-07 18:01N 56°05' E 012°36'5 9.7
2017-Oct-07 17:31N 56°01' E 012°40'510.0
2017-Oct-07 17:01N 55°57' E 012°43'510.2
2017-Oct-07 16:31N 55°52' E 012°44'510.6
2017-Oct-07 16:01N 55°46' E 012°42'511.0
2017-Oct-07 15:31N 55°41' E 012°41'4 7.7
2017-Oct-07 15:01N 55°37' E 012°42'3 5.7
2017-Oct-07 14:31N 55°34' E 012°42'3 5.8
2017-Oct-07 14:01N 55°31' E 012°43'5 9.7
2017-Oct-07 13:30N 55°27' E 012°42'611.5
2017-Oct-07 13:00N 55°21' E 012°41'510.4
2017-Oct-07 12:30N 55°17' E 012°47'510.9
2017-Oct-07 12:00N 55°16' E 012°56'510.6
2017-Oct-07 11:30N 55°16' E 013°06'510.7
2017-Oct-07 11:01N 55°15' E 013°15'510.4
2017-Oct-07 10:30N 55°15' E 013°24'1410.3
2017-Oct-07 09:06N 55°14' E 013°49'110.3
2017-Oct-07 09:00N 55°14' E 013°51'1510.2
2017-Oct-07 07:34N 55°14' E 014°17'110.5
2017-Oct-07 07:26N 55°15' E 014°19'510.6
2017-Oct-07 07:00N 55°19' E 014°24'510.6
2017-Oct-07 06:30N 55°23' E 014°30'611.3
2017-Oct-07 06:00N 55°27' E 014°37'510.4
2017-Oct-07 05:31N 55°28' E 014°46'610.6
2017-Oct-07 04:58N 55°30' E 014°55'510.8
2017-Oct-07 04:28N 55°31' E 015°04'510.9
2017-Oct-07 04:01N 55°33' E 015°13'611.0
2017-Oct-07 03:30N 55°35' E 015°22'  

Dump ship's entire track history